Terminal Aerodrome Forecast
Issued by NWS Quad Cities IA IL

Home | Current Version | Previous Version | Text Only | Print | Product List | Glossary On
Versions: 1 2 3 4 5 6 7 8 9 10 11 12 13 14 15 16
000
FTUS43 KDVN 180500
TAFDBQ
TAF
KDBQ 180520Z 1806/1906 12002KT P6SM SKC
     FM181000 11005KT P6SM FEW030
      TEMPO 1811/1815 6SM BR SCT008
     FM181800 12007KT P6SM SKC=

USA.gov is the U.S. government's official web portal to all federal, state and local government web resources and services.